sensor_id;sensor_type;location;lat;lon;timestamp;P1;durP1;ratioP1;P2;durP2;ratioP2
10250;SDS011;5170;58.692;12.478;2023-04-25T00:00:45;1.33;;;1.10;;
10250;SDS011;5170;58.692;12.478;2023-04-25T00:03:32;1.40;;;1.27;;
10250;SDS011;5170;58.692;12.478;2023-04-25T00:06:22;1.87;;;1.37;;
10250;SDS011;5170;58.692;12.478;2023-04-25T00:09:11;1.60;;;1.40;;
10250;SDS011;5170;58.692;12.478;2023-04-25T00:11:59;1.40;;;1.13;;
10250;SDS011;5170;58.692;12.478;2023-04-25T00:14:47;1.70;;;1.30;;
10250;SDS011;5170;58.692;12.478;2023-04-25T00:17:36;1.83;;;1.40;;
10250;SDS011;5170;58.692;12.478;2023-04-25T00:20:24;2.23;;;1.93;;
10250;SDS011;5170;58.692;12.478;2023-04-25T00:23:13;1.67;;;1.57;;
10250;SDS011;5170;58.692;12.478;2023-04-25T00:26:03;2.20;;;2.00;;
10250;SDS011;5170;58.692;12.478;2023-04-25T00:28:51;1.67;;;1.50;;
10250;SDS011;5170;58.692;12.478;2023-04-25T00:31:39;1.97;;;1.73;;
10250;SDS011;5170;58.692;12.478;2023-04-25T00:34:26;2.43;;;1.37;;
10250;SDS011;5170;58.692;12.478;2023-04-25T00:37:14;2.07;;;1.53;;
10250;SDS011;5170;58.692;12.478;2023-04-25T00:40:03;1.70;;;1.40;;
10250;SDS011;5170;58.692;12.478;2023-04-25T00:42:52;1.60;;;1.40;;
10250;SDS011;5170;58.692;12.478;2023-04-25T00:45:40;1.13;;;1.00;;
10250;SDS011;5170;58.692;12.478;2023-04-25T00:48:30;1.50;;;1.17;;
10250;SDS011;5170;58.692;12.478;2023-04-25T00:51:19;2.00;;;1.60;;
10250;SDS011;5170;58.692;12.478;2023-04-25T00:54:07;2.60;;;1.83;;
10250;SDS011;5170;58.692;12.478;2023-04-25T00:56:56;1.43;;;1.30;;
10250;SDS011;5170;58.692;12.478;2023-04-25T00:59:45;3.03;;;2.00;;
10250;SDS011;5170;58.692;12.478;2023-04-25T01:02:33;2.67;;;2.27;;
10250;SDS011;5170;58.692;12.478;2023-04-25T01:05:21;2.63;;;1.60;;
10250;SDS011;5170;58.692;12.478;2023-04-25T01:08:08;2.27;;;1.50;;
10250;SDS011;5170;58.692;12.478;2023-04-25T01:10:56;2.47;;;1.83;;
10250;SDS011;5170;58.692;12.478;2023-04-25T01:13:45;3.30;;;2.03;;
10250;SDS011;5170;58.692;12.478;2023-04-25T01:16:33;2.50;;;1.57;;
10250;SDS011;5170;58.692;12.478;2023-04-25T01:19:21;2.67;;;1.47;;
10250;SDS011;5170;58.692;12.478;2023-04-25T01:22:10;2.67;;;1.67;;
10250;SDS011;5170;58.692;12.478;2023-04-25T01:24:58;3.37;;;1.87;;
10250;SDS011;5170;58.692;12.478;2023-04-25T01:27:46;3.60;;;2.07;;
10250;SDS011;5170;58.692;12.478;2023-04-25T01:30:34;2.93;;;2.10;;
10250;SDS011;5170;58.692;12.478;2023-04-25T01:33:22;3.27;;;2.00;;
10250;SDS011;5170;58.692;12.478;2023-04-25T01:36:09;3.00;;;2.00;;
10250;SDS011;5170;58.692;12.478;2023-04-25T01:38:59;4.50;;;2.47;;
10250;SDS011;5170;58.692;12.478;2023-04-25T01:41:47;3.60;;;2.30;;
10250;SDS011;5170;58.692;12.478;2023-04-25T01:44:35;3.47;;;2.17;;
10250;SDS011;5170;58.692;12.478;2023-04-25T01:47:23;3.37;;;2.07;;
10250;SDS011;5170;58.692;12.478;2023-04-25T01:50:11;3.47;;;2.47;;
10250;SDS011;5170;58.692;12.478;2023-04-25T01:52:58;5.10;;;2.37;;
10250;SDS011;5170;58.692;12.478;2023-04-25T01:55:48;2.23;;;1.87;;
10250;SDS011;5170;58.692;12.478;2023-04-25T01:58:36;3.47;;;2.23;;
10250;SDS011;5170;58.692;12.478;2023-04-25T02:01:24;2.60;;;1.80;;
10250;SDS011;5170;58.692;12.478;2023-04-25T02:04:12;1.80;;;1.63;;
10250;SDS011;5170;58.692;12.478;2023-04-25T02:07:00;1.77;;;1.63;;
10250;SDS011;5170;58.692;12.478;2023-04-25T02:09:48;2.63;;;1.67;;
10250;SDS011;5170;58.692;12.478;2023-04-25T02:12:37;1.60;;;1.47;;
10250;SDS011;5170;58.692;12.478;2023-04-25T02:15:24;1.40;;;1.03;;
10250;SDS011;5170;58.692;12.478;2023-04-25T02:18:12;1.93;;;1.17;;
10250;SDS011;5170;58.692;12.478;2023-04-25T02:21:01;2.13;;;1.60;;
10250;SDS011;5170;58.692;12.478;2023-04-25T02:23:49;1.33;;;1.23;;
10250;SDS011;5170;58.692;12.478;2023-04-25T02:26:37;1.93;;;1.47;;
10250;SDS011;5170;58.692;12.478;2023-04-25T02:29:26;1.53;;;1.30;;
10250;SDS011;5170;58.692;12.478;2023-04-25T02:32:14;1.40;;;1.30;;
10250;SDS011;5170;58.692;12.478;2023-04-25T02:35:02;1.27;;;1.13;;
10250;SDS011;5170;58.692;12.478;2023-04-25T02:37:50;1.30;;;1.20;;
10250;SDS011;5170;58.692;12.478;2023-04-25T02:40:38;1.20;;;1.10;;
10250;SDS011;5170;58.692;12.478;2023-04-25T02:43:26;2.40;;;2.03;;
10250;SDS011;5170;58.692;12.478;2023-04-25T02:46:15;1.80;;;1.40;;
10250;SDS011;5170;58.692;12.478;2023-04-25T02:49:02;1.50;;;1.03;;
10250;SDS011;5170;58.692;12.478;2023-04-25T02:51:50;1.27;;;1.17;;
10250;SDS011;5170;58.692;12.478;2023-04-25T02:54:38;1.33;;;1.23;;
10250;SDS011;5170;58.692;12.478;2023-04-25T02:57:26;1.60;;;1.17;;
10250;SDS011;5170;58.692;12.478;2023-04-25T03:00:13;1.30;;;1.20;;
10250;SDS011;5170;58.692;12.478;2023-04-25T03:03:03;1.30;;;1.10;;
10250;SDS011;5170;58.692;12.478;2023-04-25T03:05:50;1.90;;;1.40;;
10250;SDS011;5170;58.692;12.478;2023-04-25T03:08:38;1.43;;;1.33;;
10250;SDS011;5170;58.692;12.478;2023-04-25T03:11:26;1.00;;;0.97;;
10250;SDS011;5170;58.692;12.478;2023-04-25T03:14:13;1.37;;;1.10;;
10250;SDS011;5170;58.692;12.478;2023-04-25T03:17:01;1.50;;;1.17;;
10250;SDS011;5170;58.692;12.478;2023-04-25T03:19:50;2.30;;;1.60;;
10250;SDS011;5170;58.692;12.478;2023-04-25T03:22:38;1.50;;;1.13;;
10250;SDS011;5170;58.692;12.478;2023-04-25T03:25:26;1.07;;;0.83;;
10250;SDS011;5170;58.692;12.478;2023-04-25T03:28:13;1.27;;;0.97;;
10250;SDS011;5170;58.692;12.478;2023-04-25T03:31:01;1.60;;;1.23;;
10250;SDS011;5170;58.692;12.478;2023-04-25T03:33:49;1.10;;;1.00;;
10250;SDS011;5170;58.692;12.478;2023-04-25T03:36:38;0.70;;;0.60;;
10250;SDS011;5170;58.692;12.478;2023-04-25T03:39:26;0.60;;;0.60;;
10250;SDS011;5170;58.692;12.478;2023-04-25T03:42:14;0.90;;;0.60;;
10250;SDS011;5170;58.692;12.478;2023-04-25T03:45:02;1.27;;;0.70;;
10250;SDS011;5170;58.692;12.478;2023-04-25T03:47:49;1.50;;;0.73;;
10250;SDS011;5170;58.692;12.478;2023-04-25T03:50:37;1.10;;;0.60;;
10250;SDS011;5170;58.692;12.478;2023-04-25T03:53:26;0.87;;;0.87;;
10250;SDS011;5170;58.692;12.478;2023-04-25T03:56:14;0.57;;;0.57;;
10250;SDS011;5170;58.692;12.478;2023-04-25T03:59:02;1.00;;;0.80;;
10250;SDS011;5170;58.692;12.478;2023-04-25T04:01:50;0.50;;;0.50;;
10250;SDS011;5170;58.692;12.478;2023-04-25T04:04:37;0.80;;;0.67;;
10250;SDS011;5170;58.692;12.478;2023-04-25T04:07:25;0.80;;;0.53;;
10250;SDS011;5170;58.692;12.478;2023-04-25T04:10:15;1.27;;;0.60;;
10250;SDS011;5170;58.692;12.478;2023-04-25T04:13:02;0.90;;;0.77;;
10250;SDS011;5170;58.692;12.478;2023-04-25T04:15:50;0.53;;;0.40;;
10250;SDS011;5170;58.692;12.478;2023-04-25T04:18:38;0.60;;;0.53;;
10250;SDS011;5170;58.692;12.478;2023-04-25T04:21:25;1.10;;;0.80;;
10250;SDS011;5170;58.692;12.478;2023-04-25T04:24:13;0.67;;;0.53;;
10250;SDS011;5170;58.692;12.478;2023-04-25T04:27:03;0.70;;;0.50;;
10250;SDS011;5170;58.692;12.478;2023-04-25T04:29:51;0.63;;;0.50;;
10250;SDS011;5170;58.692;12.478;2023-04-25T04:32:38;0.87;;;0.70;;
10250;SDS011;5170;58.692;12.478;2023-04-25T04:35:26;1.13;;;0.70;;
10250;SDS011;5170;58.692;12.478;2023-04-25T04:38:14;0.60;;;0.40;;
10250;SDS011;5170;58.692;12.478;2023-04-25T04:41:02;3.80;;;0.90;;
10250;SDS011;5170;58.692;12.478;2023-04-25T04:43:51;0.50;;;0.50;;
10250;SDS011;5170;58.692;12.478;2023-04-25T04:46:41;0.90;;;0.70;;
10250;SDS011;5170;58.692;12.478;2023-04-25T04:49:29;0.90;;;0.80;;
10250;SDS011;5170;58.692;12.478;2023-04-25T04:52:17;2.37;;;0.93;;
10250;SDS011;5170;58.692;12.478;2023-04-25T04:55:05;0.53;;;0.50;;
10250;SDS011;5170;58.692;12.478;2023-04-25T04:57:54;0.40;;;0.40;;
10250;SDS011;5170;58.692;12.478;2023-04-25T05:00:43;0.73;;;0.50;;
10250;SDS011;5170;58.692;12.478;2023-04-25T05:03:30;0.53;;;0.43;;
10250;SDS011;5170;58.692;12.478;2023-04-25T05:06:18;0.60;;;0.50;;
10250;SDS011;5170;58.692;12.478;2023-04-25T05:09:06;0.80;;;0.50;;
10250;SDS011;5170;58.692;12.478;2023-04-25T05:11:53;0.67;;;0.47;;
10250;SDS011;5170;58.692;12.478;2023-04-25T05:14:41;0.50;;;0.37;;
10250;SDS011;5170;58.692;12.478;2023-04-25T05:17:31;0.60;;;0.47;;
10250;SDS011;5170;58.692;12.478;2023-04-25T05:20:19;0.50;;;0.40;;
10250;SDS011;5170;58.692;12.478;2023-04-25T05:23:06;0.77;;;0.63;;
10250;SDS011;5170;58.692;12.478;2023-04-25T05:25:54;0.73;;;0.50;;
10250;SDS011;5170;58.692;12.478;2023-04-25T05:28:42;2.50;;;0.60;;
10250;SDS011;5170;58.692;12.478;2023-04-25T05:31:29;0.60;;;0.30;;
10250;SDS011;5170;58.692;12.478;2023-04-25T05:34:19;1.10;;;0.40;;
10250;SDS011;5170;58.692;12.478;2023-04-25T05:37:06;0.63;;;0.40;;
10250;SDS011;5170;58.692;12.478;2023-04-25T05:39:54;0.47;;;0.20;;
10250;SDS011;5170;58.692;12.478;2023-04-25T05:42:42;0.70;;;0.60;;
10250;SDS011;5170;58.692;12.478;2023-04-25T05:45:29;0.50;;;0.43;;
10250;SDS011;5170;58.692;12.478;2023-04-25T05:48:17;0.50;;;0.33;;
10250;SDS011;5170;58.692;12.478;2023-04-25T05:51:06;0.40;;;0.20;;
10250;SDS011;5170;58.692;12.478;2023-04-25T05:53:54;0.50;;;0.40;;
10250;SDS011;5170;58.692;12.478;2023-04-25T05:56:42;1.33;;;0.30;;
10250;SDS011;5170;58.692;12.478;2023-04-25T05:59:29;0.37;;;0.20;;
10250;SDS011;5170;58.692;12.478;2023-04-25T06:02:17;0.50;;;0.20;;
10250;SDS011;5170;58.692;12.478;2023-04-25T06:05:06;1.07;;;0.40;;
10250;SDS011;5170;58.692;12.478;2023-04-25T06:07:55;0.83;;;0.20;;
10250;SDS011;5170;58.692;12.478;2023-04-25T06:10:43;0.40;;;0.30;;
10250;SDS011;5170;58.692;12.478;2023-04-25T06:13:31;0.57;;;0.40;;
10250;SDS011;5170;58.692;12.478;2023-04-25T06:16:19;0.70;;;0.40;;
10250;SDS011;5170;58.692;12.478;2023-04-25T06:19:06;0.73;;;0.40;;
10250;SDS011;5170;58.692;12.478;2023-04-25T06:21:54;0.80;;;0.60;;
10250;SDS011;5170;58.692;12.478;2023-04-25T06:24:43;0.77;;;0.53;;
10250;SDS011;5170;58.692;12.478;2023-04-25T06:27:31;1.07;;;0.70;;
10250;SDS011;5170;58.692;12.478;2023-04-25T06:30:18;0.73;;;0.70;;
10250;SDS011;5170;58.692;12.478;2023-04-25T06:33:08;0.80;;;0.60;;
10250;SDS011;5170;58.692;12.478;2023-04-25T06:35:56;0.60;;;0.60;;
10250;SDS011;5170;58.692;12.478;2023-04-25T06:38:44;0.60;;;0.53;;
10250;SDS011;5170;58.692;12.478;2023-04-25T06:41:33;1.53;;;0.60;;
10250;SDS011;5170;58.692;12.478;2023-04-25T06:44:21;0.50;;;0.50;;
10250;SDS011;5170;58.692;12.478;2023-04-25T06:47:11;0.80;;;0.80;;
10250;SDS011;5170;58.692;12.478;2023-04-25T06:49:59;1.07;;;0.83;;
10250;SDS011;5170;58.692;12.478;2023-04-25T06:52:46;0.90;;;0.60;;
10250;SDS011;5170;58.692;12.478;2023-04-25T06:55:34;0.77;;;0.67;;
10250;SDS011;5170;58.692;12.478;2023-04-25T06:58:23;0.50;;;0.23;;
10250;SDS011;5170;58.692;12.478;2023-04-25T07:01:11;0.87;;;0.70;;
10250;SDS011;5170;58.692;12.478;2023-04-25T07:03:59;2.63;;;1.20;;
10250;SDS011;5170;58.692;12.478;2023-04-25T07:06:47;1.20;;;0.93;;
10250;SDS011;5170;58.692;12.478;2023-04-25T07:09:35;1.10;;;0.63;;
10250;SDS011;5170;58.692;12.478;2023-04-25T07:12:22;1.13;;;0.90;;
10250;SDS011;5170;58.692;12.478;2023-04-25T07:15:11;1.83;;;1.13;;
10250;SDS011;5170;58.692;12.478;2023-04-25T07:17:59;1.23;;;0.93;;
10250;SDS011;5170;58.692;12.478;2023-04-25T07:20:47;1.27;;;0.97;;
10250;SDS011;5170;58.692;12.478;2023-04-25T07:23:34;1.47;;;0.97;;
10250;SDS011;5170;58.692;12.478;2023-04-25T07:26:22;1.27;;;0.87;;
10250;SDS011;5170;58.692;12.478;2023-04-25T07:29:10;0.70;;;0.47;;
10250;SDS011;5170;58.692;12.478;2023-04-25T07:31:59;0.90;;;0.50;;
10250;SDS011;5170;58.692;12.478;2023-04-25T07:34:47;0.77;;;0.67;;
10250;SDS011;5170;58.692;12.478;2023-04-25T07:37:35;0.90;;;0.60;;
10250;SDS011;5170;58.692;12.478;2023-04-25T07:40:22;0.50;;;0.40;;
10250;SDS011;5170;58.692;12.478;2023-04-25T07:43:10;1.20;;;0.90;;
10250;SDS011;5170;58.692;12.478;2023-04-25T07:46:00;0.63;;;0.60;;
10250;SDS011;5170;58.692;12.478;2023-04-25T07:48:49;0.77;;;0.70;;
10250;SDS011;5170;58.692;12.478;2023-04-25T07:51:37;0.83;;;0.67;;
10250;SDS011;5170;58.692;12.478;2023-04-25T07:54:24;1.53;;;0.90;;
10250;SDS011;5170;58.692;12.478;2023-04-25T07:57:12;1.17;;;0.97;;
10250;SDS011;5170;58.692;12.478;2023-04-25T08:00:00;2.33;;;0.80;;
10250;SDS011;5170;58.692;12.478;2023-04-25T08:02:48;0.73;;;0.70;;
10250;SDS011;5170;58.692;12.478;2023-04-25T08:05:37;0.77;;;0.70;;
10250;SDS011;5170;58.692;12.478;2023-04-25T08:08:26;0.70;;;0.50;;
10250;SDS011;5170;58.692;12.478;2023-04-25T08:11:13;1.00;;;0.90;;
10250;SDS011;5170;58.692;12.478;2023-04-25T08:14:01;0.80;;;0.73;;
10250;SDS011;5170;58.692;12.478;2023-04-25T08:16:49;0.80;;;0.70;;
10250;SDS011;5170;58.692;12.478;2023-04-25T08:19:36;2.17;;;0.93;;
10250;SDS011;5170;58.692;12.478;2023-04-25T08:22:26;0.80;;;0.80;;
10250;SDS011;5170;58.692;12.478;2023-04-25T08:25:14;3.13;;;1.17;;
10250;SDS011;5170;58.692;12.478;2023-04-25T08:28:01;1.53;;;1.07;;
10250;SDS011;5170;58.692;12.478;2023-04-25T08:30:50;0.77;;;0.77;;
10250;SDS011;5170;58.692;12.478;2023-04-25T08:33:37;1.63;;;0.93;;
10250;SDS011;5170;58.692;12.478;2023-04-25T08:36:25;1.43;;;1.10;;
10250;SDS011;5170;58.692;12.478;2023-04-25T08:39:14;1.17;;;1.07;;
10250;SDS011;5170;58.692;12.478;2023-04-25T08:42:02;1.37;;;0.83;;
10250;SDS011;5170;58.692;12.478;2023-04-25T08:44:53;1.33;;;1.00;;
10250;SDS011;5170;58.692;12.478;2023-04-25T08:47:40;1.33;;;0.83;;
10250;SDS011;5170;58.692;12.478;2023-04-25T08:50:29;1.60;;;1.10;;
10250;SDS011;5170;58.692;12.478;2023-04-25T08:53:18;1.40;;;0.93;;
10250;SDS011;5170;58.692;12.478;2023-04-25T08:56:10;1.83;;;1.20;;
10250;SDS011;5170;58.692;12.478;2023-04-25T08:59:01;1.20;;;1.10;;
10250;SDS011;5170;58.692;12.478;2023-04-25T09:01:49;1.30;;;1.10;;
10250;SDS011;5170;58.692;12.478;2023-04-25T09:04:37;1.73;;;0.93;;
10250;SDS011;5170;58.692;12.478;2023-04-25T09:07:25;1.27;;;1.03;;
10250;SDS011;5170;58.692;12.478;2023-04-25T09:10:14;2.13;;;1.30;;
10250;SDS011;5170;58.692;12.478;2023-04-25T09:13:03;2.00;;;1.37;;
10250;SDS011;5170;58.692;12.478;2023-04-25T09:15:51;2.93;;;1.60;;
10250;SDS011;5170;58.692;12.478;2023-04-25T09:18:39;2.17;;;1.70;;
10250;SDS011;5170;58.692;12.478;2023-04-25T09:21:27;2.83;;;1.80;;
10250;SDS011;5170;58.692;12.478;2023-04-25T09:24:16;2.13;;;1.50;;
10250;SDS011;5170;58.692;12.478;2023-04-25T09:27:04;3.00;;;1.77;;
10250;SDS011;5170;58.692;12.478;2023-04-25T09:29:57;2.27;;;1.63;;
10250;SDS011;5170;58.692;12.478;2023-04-25T09:32:45;3.10;;;1.70;;
10250;SDS011;5170;58.692;12.478;2023-04-25T09:35:37;2.70;;;1.40;;
10250;SDS011;5170;58.692;12.478;2023-04-25T09:38:25;2.07;;;1.67;;
10250;SDS011;5170;58.692;12.478;2023-04-25T09:41:12;1.87;;;1.73;;
10250;SDS011;5170;58.692;12.478;2023-04-25T09:44:00;4.00;;;2.03;;
10250;SDS011;5170;58.692;12.478;2023-04-25T09:46:50;3.77;;;2.70;;
10250;SDS011;5170;58.692;12.478;2023-04-25T09:49:39;2.23;;;2.03;;
10250;SDS011;5170;58.692;12.478;2023-04-25T09:52:28;3.00;;;1.80;;
10250;SDS011;5170;58.692;12.478;2023-04-25T09:55:16;2.33;;;1.80;;
10250;SDS011;5170;58.692;12.478;2023-04-25T09:58:04;1.83;;;1.60;;
10250;SDS011;5170;58.692;12.478;2023-04-25T10:00:53;2.90;;;1.83;;
10250;SDS011;5170;58.692;12.478;2023-04-25T10:03:43;2.87;;;1.70;;
10250;SDS011;5170;58.692;12.478;2023-04-25T10:06:32;1.83;;;1.37;;
10250;SDS011;5170;58.692;12.478;2023-04-25T10:09:21;1.67;;;1.17;;
10250;SDS011;5170;58.692;12.478;2023-04-25T10:12:12;1.87;;;1.57;;
10250;SDS011;5170;58.692;12.478;2023-04-25T10:15:00;2.17;;;1.67;;
10250;SDS011;5170;58.692;12.478;2023-04-25T10:17:48;1.90;;;1.53;;
10250;SDS011;5170;58.692;12.478;2023-04-25T10:20:38;2.37;;;1.60;;
10250;SDS011;5170;58.692;12.478;2023-04-25T10:23:25;2.33;;;1.70;;
10250;SDS011;5170;58.692;12.478;2023-04-25T10:26:13;2.13;;;1.70;;
10250;SDS011;5170;58.692;12.478;2023-04-25T10:29:02;3.47;;;1.90;;
10250;SDS011;5170;58.692;12.478;2023-04-25T10:31:50;2.13;;;1.93;;
10250;SDS011;5170;58.692;12.478;2023-04-25T10:34:38;2.93;;;1.53;;
10250;SDS011;5170;58.692;12.478;2023-04-25T10:37:28;3.57;;;1.93;;
10250;SDS011;5170;58.692;12.478;2023-04-25T10:40:18;2.13;;;1.30;;
10250;SDS011;5170;58.692;12.478;2023-04-25T10:46:16;2.30;;;1.60;;
10250;SDS011;5170;58.692;12.478;2023-04-25T10:49:04;1.43;;;1.20;;
10250;SDS011;5170;58.692;12.478;2023-04-25T10:51:58;1.20;;;1.10;;
10250;SDS011;5170;58.692;12.478;2023-04-25T10:54:59;1.90;;;1.53;;
10250;SDS011;5170;58.692;12.478;2023-04-25T10:57:47;2.10;;;1.07;;
10250;SDS011;5170;58.692;12.478;2023-04-25T11:00:35;1.40;;;1.30;;
10250;SDS011;5170;58.692;12.478;2023-04-25T11:03:25;2.00;;;1.27;;
10250;SDS011;5170;58.692;12.478;2023-04-25T11:06:17;4.20;;;1.60;;
10250;SDS011;5170;58.692;12.478;2023-04-25T11:09:08;1.33;;;1.00;;
10250;SDS011;5170;58.692;12.478;2023-04-25T11:12:00;0.90;;;0.80;;
10250;SDS011;5170;58.692;12.478;2023-04-25T11:14:48;2.63;;;1.43;;
10250;SDS011;5170;58.692;12.478;2023-04-25T11:17:35;1.77;;;1.20;;
10250;SDS011;5170;58.692;12.478;2023-04-25T11:20:25;0.80;;;0.63;;
10250;SDS011;5170;58.692;12.478;2023-04-25T11:23:14;0.80;;;0.80;;
10250;SDS011;5170;58.692;12.478;2023-04-25T11:26:02;1.80;;;1.10;;
10250;SDS011;5170;58.692;12.478;2023-04-25T11:28:55;1.20;;;1.10;;
10250;SDS011;5170;58.692;12.478;2023-04-25T11:31:45;1.43;;;0.90;;
10250;SDS011;5170;58.692;12.478;2023-04-25T11:34:33;1.27;;;0.67;;
10250;SDS011;5170;58.692;12.478;2023-04-25T11:37:21;0.50;;;0.50;;
10250;SDS011;5170;58.692;12.478;2023-04-25T11:40:09;1.03;;;0.63;;
10250;SDS011;5170;58.692;12.478;2023-04-25T11:42:59;1.43;;;0.60;;
10250;SDS011;5170;58.692;12.478;2023-04-25T11:45:48;1.23;;;0.73;;
10250;SDS011;5170;58.692;12.478;2023-04-25T11:48:38;1.50;;;0.67;;
10250;SDS011;5170;58.692;12.478;2023-04-25T11:51:25;1.33;;;1.00;;
10250;SDS011;5170;58.692;12.478;2023-04-25T11:54:13;1.10;;;0.90;;
10250;SDS011;5170;58.692;12.478;2023-04-25T11:57:01;1.13;;;1.00;;
10250;SDS011;5170;58.692;12.478;2023-04-25T11:59:49;3.53;;;1.33;;
10250;SDS011;5170;58.692;12.478;2023-04-25T12:02:39;1.03;;;0.80;;
10250;SDS011;5170;58.692;12.478;2023-04-25T12:05:29;2.10;;;1.40;;
10250;SDS011;5170;58.692;12.478;2023-04-25T12:08:18;1.10;;;1.00;;
10250;SDS011;5170;58.692;12.478;2023-04-25T12:11:18;0.90;;;0.60;;
10250;SDS011;5170;58.692;12.478;2023-04-25T12:14:07;1.20;;;0.87;;
10250;SDS011;5170;58.692;12.478;2023-04-25T12:16:55;1.33;;;0.63;;
10250;SDS011;5170;58.692;12.478;2023-04-25T12:19:46;1.57;;;0.90;;
10250;SDS011;5170;58.692;12.478;2023-04-25T12:22:34;0.93;;;0.70;;
10250;SDS011;5170;58.692;12.478;2023-04-25T12:25:34;1.73;;;0.63;;
10250;SDS011;5170;58.692;12.478;2023-04-25T12:28:22;0.67;;;0.40;;
10250;SDS011;5170;58.692;12.478;2023-04-25T12:31:10;0.90;;;0.50;;
10250;SDS011;5170;58.692;12.478;2023-04-25T12:34:00;1.03;;;0.30;;
10250;SDS011;5170;58.692;12.478;2023-04-25T12:36:50;0.47;;;0.40;;
10250;SDS011;5170;58.692;12.478;2023-04-25T12:39:38;0.67;;;0.53;;
10250;SDS011;5170;58.692;12.478;2023-04-25T12:42:26;0.80;;;0.40;;
10250;SDS011;5170;58.692;12.478;2023-04-25T12:45:13;1.07;;;0.63;;
10250;SDS011;5170;58.692;12.478;2023-04-25T12:48:02;0.67;;;0.40;;
10250;SDS011;5170;58.692;12.478;2023-04-25T12:50:50;0.40;;;0.40;;
10250;SDS011;5170;58.692;12.478;2023-04-25T12:53:39;0.53;;;0.40;;
10250;SDS011;5170;58.692;12.478;2023-04-25T12:56:27;0.90;;;0.50;;
10250;SDS011;5170;58.692;12.478;2023-04-25T12:59:15;2.40;;;0.60;;
10250;SDS011;5170;58.692;12.478;2023-04-25T13:02:03;1.23;;;0.30;;
10250;SDS011;5170;58.692;12.478;2023-04-25T13:04:51;0.50;;;0.50;;
10250;SDS011;5170;58.692;12.478;2023-04-25T13:07:39;0.80;;;0.60;;
10250;SDS011;5170;58.692;12.478;2023-04-25T13:10:28;0.80;;;0.53;;
10250;SDS011;5170;58.692;12.478;2023-04-25T13:13:15;0.83;;;0.60;;
10250;SDS011;5170;58.692;12.478;2023-04-25T13:16:03;0.70;;;0.47;;
10250;SDS011;5170;58.692;12.478;2023-04-25T13:18:51;1.03;;;0.60;;
10250;SDS011;5170;58.692;12.478;2023-04-25T13:21:39;0.63;;;0.37;;
10250;SDS011;5170;58.692;12.478;2023-04-25T13:24:26;0.80;;;0.40;;
10250;SDS011;5170;58.692;12.478;2023-04-25T13:27:16;1.40;;;0.73;;
10250;SDS011;5170;58.692;12.478;2023-04-25T13:30:04;0.70;;;0.60;;
10250;SDS011;5170;58.692;12.478;2023-04-25T13:32:53;1.23;;;0.50;;
10250;SDS011;5170;58.692;12.478;2023-04-25T13:35:42;0.80;;;0.40;;
10250;SDS011;5170;58.692;12.478;2023-04-25T13:38:32;0.50;;;0.40;;
10250;SDS011;5170;58.692;12.478;2023-04-25T13:41:19;0.33;;;0.30;;
10250;SDS011;5170;58.692;12.478;2023-04-25T13:44:09;0.40;;;0.40;;
10250;SDS011;5170;58.692;12.478;2023-04-25T13:46:57;0.53;;;0.40;;
10250;SDS011;5170;58.692;12.478;2023-04-25T13:49:46;0.40;;;0.30;;
10250;SDS011;5170;58.692;12.478;2023-04-25T13:52:33;0.80;;;0.50;;
10250;SDS011;5170;58.692;12.478;2023-04-25T13:55:21;0.40;;;0.33;;
10250;SDS011;5170;58.692;12.478;2023-04-25T13:58:09;1.80;;;0.40;;
10250;SDS011;5170;58.692;12.478;2023-04-25T14:00:58;0.80;;;0.40;;
10250;SDS011;5170;58.692;12.478;2023-04-25T14:03:46;1.70;;;0.33;;
10250;SDS011;5170;58.692;12.478;2023-04-25T14:06:34;0.77;;;0.33;;
10250;SDS011;5170;58.692;12.478;2023-04-25T14:09:22;0.83;;;0.33;;
10250;SDS011;5170;58.692;12.478;2023-04-25T14:12:11;1.07;;;0.40;;
10250;SDS011;5170;58.692;12.478;2023-04-25T14:14:58;0.60;;;0.33;;
10250;SDS011;5170;58.692;12.478;2023-04-25T14:17:47;2.20;;;0.50;;
10250;SDS011;5170;58.692;12.478;2023-04-25T14:20:35;3.03;;;0.53;;
10250;SDS011;5170;58.692;12.478;2023-04-25T14:23:23;0.50;;;0.27;;
10250;SDS011;5170;58.692;12.478;2023-04-25T14:26:11;3.00;;;2.20;;
10250;SDS011;5170;58.692;12.478;2023-04-25T14:28:58;1.00;;;0.37;;
10250;SDS011;5170;58.692;12.478;2023-04-25T14:31:46;0.40;;;0.40;;
10250;SDS011;5170;58.692;12.478;2023-04-25T14:34:36;0.50;;;0.23;;
10250;SDS011;5170;58.692;12.478;2023-04-25T14:37:24;0.97;;;0.40;;
10250;SDS011;5170;58.692;12.478;2023-04-25T14:40:12;1.23;;;0.53;;
10250;SDS011;5170;58.692;12.478;2023-04-25T14:43:01;2.03;;;0.30;;
10250;SDS011;5170;58.692;12.478;2023-04-25T14:45:48;0.60;;;0.30;;
10250;SDS011;5170;58.692;12.478;2023-04-25T14:48:36;1.50;;;0.30;;
10250;SDS011;5170;58.692;12.478;2023-04-25T14:51:25;0.30;;;0.20;;
10250;SDS011;5170;58.692;12.478;2023-04-25T14:54:13;0.63;;;0.43;;
10250;SDS011;5170;58.692;12.478;2023-04-25T14:57:01;0.37;;;0.20;;
10250;SDS011;5170;58.692;12.478;2023-04-25T14:59:48;0.80;;;0.30;;
10250;SDS011;5170;58.692;12.478;2023-04-25T15:02:36;0.30;;;0.13;;
10250;SDS011;5170;58.692;12.478;2023-04-25T15:05:24;0.30;;;0.23;;
10250;SDS011;5170;58.692;12.478;2023-04-25T15:08:13;0.30;;;0.20;;
10250;SDS011;5170;58.692;12.478;2023-04-25T15:11:01;0.70;;;0.20;;
10250;SDS011;5170;58.692;12.478;2023-04-25T15:13:48;0.37;;;0.30;;
10250;SDS011;5170;58.692;12.478;2023-04-25T15:16:36;0.40;;;0.40;;
10250;SDS011;5170;58.692;12.478;2023-04-25T15:19:24;0.33;;;0.27;;
10250;SDS011;5170;58.692;12.478;2023-04-25T15:22:11;0.30;;;0.20;;
10250;SDS011;5170;58.692;12.478;2023-04-25T15:25:01;0.60;;;0.30;;
10250;SDS011;5170;58.692;12.478;2023-04-25T15:27:48;0.40;;;0.23;;
10250;SDS011;5170;58.692;12.478;2023-04-25T15:30:37;0.40;;;0.40;;
10250;SDS011;5170;58.692;12.478;2023-04-25T15:33:24;0.30;;;0.30;;
10250;SDS011;5170;58.692;12.478;2023-04-25T15:36:12;0.30;;;0.10;;
10250;SDS011;5170;58.692;12.478;2023-04-25T15:39:01;0.90;;;0.50;;
10250;SDS011;5170;58.692;12.478;2023-04-25T15:41:51;0.63;;;0.20;;
10250;SDS011;5170;58.692;12.478;2023-04-25T15:44:38;0.30;;;0.20;;
10250;SDS011;5170;58.692;12.478;2023-04-25T15:47:26;0.30;;;0.30;;
10250;SDS011;5170;58.692;12.478;2023-04-25T15:50:14;0.60;;;0.40;;
10250;SDS011;5170;58.692;12.478;2023-04-25T15:53:01;0.70;;;0.30;;
10250;SDS011;5170;58.692;12.478;2023-04-25T15:55:49;0.50;;;0.37;;
10250;SDS011;5170;58.692;12.478;2023-04-25T15:58:38;0.47;;;0.20;;
10250;SDS011;5170;58.692;12.478;2023-04-25T16:01:26;0.60;;;0.30;;
10250;SDS011;5170;58.692;12.478;2023-04-25T16:04:15;0.30;;;0.10;;
10250;SDS011;5170;58.692;12.478;2023-04-25T16:07:03;0.30;;;0.10;;
10250;SDS011;5170;58.692;12.478;2023-04-25T16:09:51;0.50;;;0.23;;
10250;SDS011;5170;58.692;12.478;2023-04-25T16:12:39;0.30;;;0.20;;
10250;SDS011;5170;58.692;12.478;2023-04-25T16:15:28;0.40;;;0.30;;
10250;SDS011;5170;58.692;12.478;2023-04-25T16:18:16;1.17;;;0.33;;
10250;SDS011;5170;58.692;12.478;2023-04-25T16:21:04;0.30;;;0.10;;
10250;SDS011;5170;58.692;12.478;2023-04-25T16:23:52;0.40;;;0.20;;
10250;SDS011;5170;58.692;12.478;2023-04-25T16:26:39;0.33;;;0.13;;
10250;SDS011;5170;58.692;12.478;2023-04-25T16:29:28;0.33;;;0.30;;
10250;SDS011;5170;58.692;12.478;2023-04-25T16:32:17;0.50;;;0.20;;
10250;SDS011;5170;58.692;12.478;2023-04-25T16:35:05;0.40;;;0.17;;
10250;SDS011;5170;58.692;12.478;2023-04-25T16:37:52;0.40;;;0.20;;
10250;SDS011;5170;58.692;12.478;2023-04-25T16:40:40;0.40;;;0.20;;
10250;SDS011;5170;58.692;12.478;2023-04-25T16:43:28;0.30;;;0.13;;
10250;SDS011;5170;58.692;12.478;2023-04-25T16:46:16;1.43;;;0.20;;
10250;SDS011;5170;58.692;12.478;2023-04-25T16:49:05;2.10;;;0.30;;
10250;SDS011;5170;58.692;12.478;2023-04-25T16:51:53;0.47;;;0.10;;
10250;SDS011;5170;58.692;12.478;2023-04-25T16:54:41;0.57;;;0.40;;
10250;SDS011;5170;58.692;12.478;2023-04-25T16:57:28;0.30;;;0.27;;